Time;durP1;ratioP1;P1;durP2;ratioP2;P2;SDS_P1;SDS_P2;PMS_P1;PMS_P2;Temp;Humidity;BMP_temperature;BMP_pressure;BME280_temperature;BME280_humidity;BME280_pressure;Samples;Min_cycle;Max_cycle;Signal;HPM_P1;HPM_P2
2022/12/06 06:52:19;;;;;;;26.93;17.02;;;;;;;-3.42;100.00;98352.26;1871447;76;26978;-58
2022/12/06 06:54:46;;;;;;;28.12;15.43;;;;;;;-3.45;100.00;98356.06;1827802;78;20911;-57
2022/12/06 06:57:13;;;;;;;49.85;25.00;;;;;;;-3.40;100.00;98356.30;1827714;78;21180;-61
2022/12/06 06:59:39;;;;;;;22.67;13.60;;;;;;;-3.31;100.00;98361.69;1827624;78;21384;-59
2022/12/06 07:02:10;;;;;;;14.03;9.38;;;;;;;-3.19;100.00;98356.22;1827686;78;20936;-58
2022/12/06 07:04:36;;;;;;;11.65;7.37;;;;;;;-3.09;100.00;98359.80;1791256;80;20895;-58
2022/12/06 07:07:03;;;;;;;21.20;12.45;;;;;;;-2.99;100.00;98344.00;1791270;80;20938;-62
2022/12/06 07:09:31;;;;;;;13.35;8.23;;;;;;;-2.94;100.00;98329.80;1780071;80;21128;-60
2022/12/06 07:11:57;;;;;;;10.33;6.80;;;;;;;-2.92;100.00;98343.52;1779311;80;20935;-57
2022/12/06 07:14:24;;;;;;;12.13;8.95;;;;;;;-2.91;100.00;98336.47;1780136;80;20918;-57
2022/12/06 07:16:51;;;;;;;10.82;7.80;;;;;;;-2.91;100.00;98341.22;1779633;80;20979;-58
2022/12/06 07:19:18;;;;;;;10.05;7.12;;;;;;;-2.89;100.00;98339.20;1780211;80;20884;-58
2022/12/06 07:21:45;;;;;;;10.45;7.35;;;;;;;-2.81;100.00;98345.59;1777533;80;21035;-59
2022/12/06 07:24:20;;;;;;;10.35;6.67;;;;;;;-2.75;100.00;98340.05;1749277;78;21053;-58
2022/12/06 07:26:47;;;;;;;8.55;5.92;;;;;;;-2.69;100.00;98339.77;1737833;80;21387;-58
2022/12/06 07:29:14;;;;;;;7.60;5.50;;;;;;;-2.69;100.00;98337.15;1778400;79;20927;-58
2022/12/06 07:31:40;;;;;;;7.75;5.90;;;;;;;-2.68;100.00;98341.38;1778155;80;21510;-59
2022/12/06 07:34:08;;;;;;;9.95;6.75;;;;;;;-2.70;100.00;98344.20;1767233;80;21844;-57
2022/12/06 07:36:35;;;;;;;12.80;7.20;;;;;;;-2.71;100.00;98341.79;1726251;80;20915;-59
2022/12/06 07:39:01;;;;;;;8.68;6.20;;;;;;;-2.69;100.00;98341.90;1770578;79;21043;-58
2022/12/06 07:47:05;;;;;;;;;;;;;;;-2.56;100.00;98345.04;1758129;80;21272;-59
2022/12/06 07:49:32;;;;;;;12.07;6.15;;;;;;;-2.52;100.00;98360.70;1780853;79;20119;-57
2022/12/06 07:51:59;;;;;;;14.03;8.80;;;;;;;-2.48;100.00;98354.05;1787022;80;20943;-58
2022/12/06 07:54:26;;;;;;;13.53;7.95;;;;;;;-2.44;100.00;98350.83;1790434;80;21108;-59
2022/12/06 07:56:55;;;;;;;11.43;7.60;;;;;;;-2.41;100.00;98350.44;1787021;80;20959;-59
2022/12/06 07:59:21;;;;;;;13.25;6.10;;;;;;;-2.39;100.00;98343.67;1783976;80;21123;-60
2022/12/06 08:01:49;;;;;;;8.00;6.20;;;;;;;-2.33;100.00;98335.02;1781007;78;21359;-54
2022/12/06 08:04:17;;;;;;;9.13;6.17;;;;;;;-2.32;100.00;98326.13;1745244;80;20903;-60
2022/12/06 08:06:55;;;;;;;10.40;6.33;;;;;;;-2.33;100.00;98331.08;1780106;80;20989;-58
2022/12/06 08:09:35;;;;;;;19.10;10.98;;;;;;;-2.34;100.00;98316.34;1776360;80;20979;-62
2022/12/06 08:12:03;;;;;;;16.60;9.13;;;;;;;-2.33;100.00;98325.84;1781864;78;21090;-68
2022/12/06 08:14:30;;;;;;;10.82;5.85;;;;;;;-2.31;100.00;98319.88;1789570;80;21001;-66
2022/12/06 08:16:57;;;;;;;10.00;7.03;;;;;;;-2.29;100.00;98319.17;1789902;80;20985;-62
2022/12/06 08:19:25;;;;;;;10.13;7.17;;;;;;;-2.31;100.00;98322.50;1790518;80;20926;-66
2022/12/06 08:21:52;;;;;;;11.83;7.45;;;;;;;-2.29;100.00;98323.11;1790649;80;20931;-65
2022/12/06 08:24:19;;;;;;;15.55;9.20;;;;;;;-2.30;100.00;98310.98;1790463;80;21246;-63
2022/12/06 08:26:47;;;;;;;14.50;6.87;;;;;;;-2.30;100.00;98312.30;1787522;79;21024;-61
2022/12/06 08:29:24;;;;;;;11.57;7.35;;;;;;;-2.29;100.00;98329.67;1783994;80;21014;-61
2022/12/06 08:31:55;;;;;;;14.65;8.65;;;;;;;-2.30;100.00;98321.48;1782878;80;20930;-61
2022/12/06 08:34:22;;;;;;;14.15;8.98;;;;;;;-2.29;100.00;98313.92;1784777;80;21113;-63
2022/12/06 08:36:56;;;;;;;12.58;8.60;;;;;;;-2.25;100.00;98309.37;1783813;80;21244;-63
2022/12/06 08:39:27;;;;;;;19.95;9.80;;;;;;;-2.21;100.00;98301.90;1772528;80;21069;-66
2022/12/06 08:42:02;;;;;;;16.57;10.63;;;;;;;-2.19;100.00;98307.25;1778968;78;21461;-65
2022/12/06 08:44:30;;;;;;;18.12;9.00;;;;;;;-2.14;100.00;98306.64;1783893;78;20981;-60
2022/12/06 08:46:59;;;;;;;12.18;8.63;;;;;;;-2.12;100.00;98299.41;1781811;78;21440;-68
2022/12/06 08:49:27;;;;;;;15.38;9.88;;;;;;;-2.14;100.00;98290.90;1784416;78;22244;-57
2022/12/06 08:51:55;;;;;;;15.53;9.95;;;;;;;-2.17;100.00;98287.39;1784439;80;21024;-62
2022/12/06 08:54:23;;;;;;;15.08;9.90;;;;;;;-2.21;100.00;98292.22;1800958;78;21611;-75
2022/12/06 08:56:50;;;;;;;12.28;9.13;;;;;;;-2.26;100.00;98289.91;1820291;78;20928;-61
2022/12/06 08:59:17;;;;;;;16.17;10.15;;;;;;;-2.23;100.00;98277.68;1778794;78;21013;-68
2022/12/06 09:01:45;;;;;;;10.72;7.28;;;;;;;-2.21;100.00;98278.28;1816022;78;21193;-63
2022/12/06 09:04:19;;;;;;;15.18;8.70;;;;;;;-2.19;100.00;98269.73;1821349;78;20980;-63
2022/12/06 09:06:47;;;;;;;14.03;9.10;;;;;;;-2.21;100.00;98275.16;1779946;80;20998;-64
2022/12/06 09:09:16;;;;;;;12.50;8.85;;;;;;;-2.21;100.00;98274.34;1776972;80;21021;-69
2022/12/06 09:11:45;;;;;;;12.30;8.10;;;;;;;-2.20;100.00;98267.60;1776346;80;21083;-63
2022/12/06 09:14:14;;;;;;;12.45;7.85;;;;;;;-2.18;100.00;98268.70;1770546;80;21236;-63
2022/12/06 09:16:44;;;;;;;14.95;10.15;;;;;;;-2.15;100.00;98265.68;1759896;80;21030;-63
2022/12/06 09:19:14;;;;;;;14.87;10.10;;;;;;;-2.19;100.00;98253.98;1744009;82;21090;-60
2022/12/06 09:21:42;;;;;;;21.68;8.53;;;;;;;-2.21;100.00;98261.22;1745500;82;21546;-65
2022/12/06 09:24:13;;;;;;;11.53;8.10;;;;;;;-2.20;100.00;98253.67;1764291;80;20995;-63
2022/12/06 09:26:48;;;;;;;12.82;7.95;;;;;;;-2.18;100.00;98246.39;1774859;80;20999;-67
2022/12/06 09:29:15;;;;;;;16.50;9.00;;;;;;;-2.19;100.00;98261.33;1773380;80;21067;-66
2022/12/06 09:31:46;;;;;;;14.10;8.80;;;;;;;-2.17;100.00;98250.65;1772527;80;21100;-66
2022/12/06 09:34:12;;;;;;;10.00;6.97;;;;;;;-2.17;100.00;98250.12;1772838;80;20970;-62
2022/12/06 09:36:53;;;;;;;14.20;10.48;;;;;;;-2.13;100.00;98247.41;1766566;80;21014;-65
2022/12/06 09:39:30;;;;;;;10.68;7.30;;;;;;;-2.11;100.00;98243.26;1769435;80;21205;-61
2022/12/06 09:42:20;;;;;;;19.65;7.65;;;;;;;-2.10;100.00;98226.52;1732317;82;20973;-60
2022/12/06 09:45:11;;;;;;;17.77;8.30;;;;;;;-2.13;100.00;98234.79;1750167;80;20940;-62
2022/12/06 09:48:07;;;;;;;14.93;8.58;;;;;;;-2.16;100.00;98236.00;1760605;81;21413;-61
2022/12/06 09:51:02;;;;;;;11.50;7.37;;;;;;;-2.17;100.00;98230.97;1762339;80;21013;-63
2022/12/06 09:53:56;;;;;;;17.07;7.72;;;;;;;-2.19;100.00;98211.99;1761091;80;21117;-69
2022/12/06 09:56:48;;;;;;;13.65;7.12;;;;;;;-2.20;100.00;98207.74;1771527;80;21006;-61
2022/12/06 09:59:42;;;;;;;10.90;7.62;;;;;;;-2.20;100.00;98203.81;1761159;80;21318;-63
2022/12/06 10:02:18;;;;;;;16.32;8.63;;;;;;;-2.18;100.00;98213.59;1763241;80;20986;-66
2022/12/06 10:07:49;;;;;;;10.18;6.95;;;;;;;-2.03;100.00;98206.31;1870919;75;27982;-66
2022/12/06 10:10:53;;;;;;;11.10;7.85;;;;;;;-2.06;100.00;98211.96;1799439;77;21486;-65
2022/12/06 10:13:37;;;;;;;11.12;7.08;;;;;;;-2.01;100.00;98206.09;1850445;77;21143;-63
2022/12/06 10:16:19;;;;;;;12.28;7.95;;;;;;;-1.99;100.00;98199.63;1832862;77;21371;-63
2022/12/06 10:18:54;;;;;;;10.48;8.08;;;;;;;-1.98;100.00;98199.95;1828914;77;20916;-66
2022/12/06 10:22:05;;;;;;;11.53;7.53;;;;;;;-1.98;100.00;98189.45;1845499;77;20974;-68
2022/12/06 10:25:15;;;;;;;12.60;7.90;;;;;;;-1.97;100.00;98189.73;1832396;77;20955;-63
2022/12/06 10:27:53;;;;;;;12.37;8.15;;;;;;;-1.93;100.00;98179.11;1848606;77;21240;-64
2022/12/06 10:30:19;;;;;;;14.03;8.40;;;;;;;-1.94;100.00;98180.14;1843495;77;20954;-62
2022/12/06 10:33:04;;;;;;;12.03;8.20;;;;;;;-1.91;100.00;98177.11;1824608;77;20939;-60
2022/12/06 10:35:50;;;;;;;16.75;9.45;;;;;;;-1.87;100.00;98156.48;1803968;77;21069;-65
2022/12/06 10:38:43;;;;;;;22.70;10.32;;;;;;;-1.91;100.00;98161.36;1828094;77;21046;-64
2022/12/06 10:41:27;;;;;;;15.38;9.70;;;;;;;-1.90;100.00;98155.08;1840383;77;21122;-63
2022/12/06 10:44:16;;;;;;;18.67;9.30;;;;;;;-1.92;100.00;98153.17;1838625;77;20955;-61
2022/12/06 10:47:11;;;;;;;14.68;8.10;;;;;;;-1.93;100.00;98158.10;1842911;77;21086;-63
2022/12/06 10:50:04;;;;;;;10.15;7.05;;;;;;;-1.93;100.00;98162.05;1813874;78;20975;-59
2022/12/06 10:52:53;;;;;;;17.02;8.40;;;;;;;-1.92;100.00;98156.30;1802215;78;21176;-66
2022/12/06 10:55:35;;;;;;;12.98;8.10;;;;;;;-1.90;100.00;98158.20;1783494;79;21820;-64
2022/12/06 10:58:23;;;;;;;16.37;10.60;;;;;;;-1.90;100.00;98159.52;1805095;78;21474;-63
2022/12/06 11:00:58;;;;;;;33.23;16.20;;;;;;;-1.92;100.00;98163.66;1772068;81;20885;-66
2022/12/06 11:03:46;;;;;;;17.30;9.88;;;;;;;-1.89;100.00;98160.64;1738096;80;21102;-63
2022/12/06 11:06:30;;;;;;;22.45;9.73;;;;;;;-1.90;100.00;98158.20;1750083;79;20940;-64
2022/12/06 11:09:34;;;;;;;37.58;22.27;;;;;;;-1.90;100.00;98155.08;1815772;79;21216;-65
2022/12/06 11:12:03;;;;;;;35.50;19.50;;;;;;;-1.91;100.00;98133.79;1778467;79;20979;-63
2022/12/06 11:14:37;;;;;;;16.70;10.13;;;;;;;-1.91;100.00;98128.54;1794452;77;21038;-65
2022/12/06 11:17:19;;;;;;;32.78;18.75;;;;;;;-1.91;100.00;98117.22;1823515;77;21022;-62
2022/12/06 11:19:51;;;;;;;18.30;13.03;;;;;;;-1.87;100.00;98121.85;1829152;77;21097;-65
2022/12/06 11:23:04;;;;;;;12.10;8.73;;;;;;;-1.82;100.00;98115.47;1819472;77;21106;-62
2022/12/06 11:25:36;;;;;;;12.75;8.40;;;;;;;-1.77;100.00;98116.97;1816966;78;21033;-65
2022/12/06 11:28:12;;;;;;;14.87;8.88;;;;;;;-1.73;100.00;98129.16;1831893;77;21572;-67
2022/12/06 11:30:38;;;;;;;;;;;;;;;-1.72;100.00;98131.56;1836191;77;21458;-66
2022/12/06 11:33:08;;;;;;;14.47;9.43;;;;;;;-1.68;100.00;98136.72;1829016;77;20214;-62
2022/12/06 11:35:34;;;;;;;10.65;7.70;;;;;;;-1.68;100.00;98136.72;1812734;77;21118;-66
2022/12/06 11:38:04;;;;;;;16.82;9.30;;;;;;;-1.66;100.00;98133.37;1782543;78;21007;-66
2022/12/06 11:40:36;;;;;;;12.00;8.40;;;;;;;-1.68;100.00;98139.34;1850322;76;21036;-68
2022/12/06 11:43:07;;;;;;;22.07;16.50;;;;;;;-1.71;100.00;98124.00;1805201;78;21014;-63
2022/12/06 11:45:38;;;;;;;16.05;11.12;;;;;;;-1.73;100.00;98126.03;1802748;78;20982;-64
2022/12/06 11:48:15;;;;;;;15.50;9.85;;;;;;;-1.72;100.00;98130.25;1827482;77;21080;-61
2022/12/06 11:50:42;;;;;;;15.55;7.97;;;;;;;-1.66;100.00;98122.05;1826758;77;21062;-68
2022/12/06 11:53:30;;;;;;;14.58;7.97;;;;;;;-1.66;100.00;98118.93;1828450;77;20976;-68
2022/12/06 11:56:01;;;;;;;9.33;7.10;;;;;;;-1.63;100.00;98115.08;1837056;77;20896;-65
2022/12/06 11:58:40;;;;;;;15.40;8.03;;;;;;;-1.62;100.00;98099.09;1847465;77;20976;-67
2022/12/06 12:01:10;;;;;;;14.65;8.08;;;;;;;-1.60;100.00;98102.31;1852349;77;21696;-68
2022/12/06 12:03:40;;;;;;;9.95;7.65;;;;;;;-1.57;100.00;98088.77;1850770;77;20970;-62
2022/12/06 12:06:25;;;;;;;10.40;7.12;;;;;;;-1.56;100.00;98083.02;1804107;79;21015;-63
2022/12/06 12:09:03;;;;;;;9.65;7.20;;;;;;;-1.58;100.00;98076.64;1837260;77;21047;-62
2022/12/06 12:11:33;;;;;;;10.98;7.65;;;;;;;-1.59;100.00;98075.05;1791059;79;21071;-64
2022/12/06 12:14:02;;;;;;;10.23;7.80;;;;;;;-1.57;100.00;98065.63;1776997;80;21521;-60
2022/12/06 12:16:36;;;;;;;12.60;7.58;;;;;;;-1.54;100.00;98065.22;1813756;79;20948;-63
2022/12/06 12:19:20;;;;;;;10.80;8.68;;;;;;;-1.52;100.00;98065.30;1779271;80;21600;-65
2022/12/06 12:21:47;;;;;;;13.88;8.03;;;;;;;-1.52;100.00;98066.63;1749182;79;21458;-65
2022/12/06 12:24:42;;;;;;;11.03;7.80;;;;;;;-1.47;100.00;98067.30;1814952;79;20959;-64
2022/12/06 12:27:32;;;;;;;9.93;8.15;;;;;;;-1.45;100.00;98055.56;1768789;80;21202;-63
2022/12/06 12:30:25;;;;;;;24.05;14.28;;;;;;;-1.46;100.00;98059.19;1850461;77;20907;-64
2022/12/06 12:35:52;;;;;;;;;;;;;;;-1.49;100.00;98043.06;1853416;77;20919;-62
2022/12/06 12:38:29;;;;;;;13.10;8.93;;;;;;;-1.52;100.00;98048.23;1842022;77;20068;-63
2022/12/06 12:41:00;;;;;;;10.25;6.83;;;;;;;-1.51;100.00;98039.31;1774622;80;21266;-64
2022/12/06 12:43:32;;;;;;;11.63;7.72;;;;;;;-1.49;100.00;98035.99;1791169;77;20928;-65
2022/12/06 12:46:07;;;;;;;15.20;11.25;;;;;;;-1.50;100.00;98035.69;1850975;77;21411;-65
2022/12/06 12:48:35;;;;;;;16.93;11.85;;;;;;;-1.51;100.00;98036.69;1831865;77;28076;-62
2022/12/06 12:51:06;;;;;;;18.77;9.78;;;;;;;-1.52;100.00;98035.59;1818451;79;21002;-65
2022/12/06 12:53:39;;;;;;;11.48;8.33;;;;;;;-1.53;100.00;98033.47;1819333;79;21178;-62
2022/12/06 12:56:18;;;;;;;18.70;9.45;;;;;;;-1.54;100.00;98038.45;1833659;77;20915;-66
2022/12/06 12:58:54;;;;;;;33.35;21.25;;;;;;;-1.56;100.00;98016.84;1794336;79;20987;-64
2022/12/06 13:01:39;;;;;;;18.52;13.78;;;;;;;-1.59;100.00;98023.83;1801951;79;20876;-62
2022/12/06 13:04:29;;;;;;;11.53;8.53;;;;;;;-1.61;100.00;98029.80;1760670;80;20892;-60
2022/12/06 13:07:20;;;;;;;9.45;7.60;;;;;;;-1.61;100.00;98028.49;1835595;77;21287;-61
